Time;durP1;ratioP1;P1;durP2;ratioP2;P2;SDS_P1;SDS_P2;PMS_P1;PMS_P2;Temp;Humidity;BMP_temperature;BMP_pressure;BME280_temperature;BME280_humidity;BME280_pressure;Samples;Min_cycle;Max_cycle;Signal;HPM_P1;HPM_P2
2022/05/08 00:00:55;;;;;;;23.33;4.45;;;;;;;5.45;90.50;102705.34;2082241;28;20108;-64
2022/05/08 00:01:56;;;;;;;24.60;4.93;;;;;;;5.42;90.49;102706.19;2081485;28;44667;-64
2022/05/08 00:02:58;;;;;;;20.13;4.55;;;;;;;5.36;91.09;102706.00;2081954;28;44180;-64
2022/05/08 00:04:01;;;;;;;25.58;4.45;;;;;;;5.35;91.44;102712.19;2081485;28;44848;-64
2022/05/08 00:05:03;;;;;;;21.33;4.35;;;;;;;5.30;91.24;102706.75;2081143;28;44412;-64
2022/05/08 00:06:10;;;;;;;25.98;4.40;;;;;;;5.31;90.69;102711.22;2082047;28;32178;-64
2022/05/08 00:07:12;;;;;;;20.08;4.50;;;;;;;5.30;90.72;102703.19;2082051;28;32221;-64
2022/05/08 00:08:14;;;;;;;25.42;4.65;;;;;;;5.26;90.37;102707.53;2081607;28;45282;-64
2022/05/08 00:09:15;;;;;;;29.55;5.10;;;;;;;5.26;90.43;102706.63;2081696;28;45960;-65
2022/05/08 00:10:20;;;;;;;22.92;4.45;;;;;;;5.25;90.67;102705.72;2083061;28;20107;-65
2022/05/08 00:11:21;;;;;;;24.63;4.68;;;;;;;5.26;91.06;102710.19;2081074;28;45508;-64
2022/05/08 00:12:23;;;;;;;25.77;5.00;;;;;;;5.22;91.51;102704.72;2082100;28;37633;-65
2022/05/08 00:13:25;;;;;;;28.42;5.32;;;;;;;5.25;91.94;102703.06;2081727;28;43374;-64
2022/05/08 00:14:26;;;;;;;23.95;4.80;;;;;;;5.24;90.98;102706.59;2081150;28;44440;-64
2022/05/08 00:15:28;;;;;;;23.48;4.82;;;;;;;5.23;91.96;102704.78;2081915;28;42388;-63
2022/05/08 00:16:31;;;;;;;26.55;5.28;;;;;;;5.21;91.91;102706.50;2080571;28;20038;-64
2022/05/08 00:17:36;;;;;;;21.60;4.78;;;;;;;5.18;90.94;102710.81;2081283;28;40550;-64
2022/05/08 00:18:40;;;;;;;31.20;5.60;;;;;;;5.29;92.82;102704.97;2081643;28;20104;-63
2022/05/08 00:19:43;;;;;;;23.77;5.00;;;;;;;5.23;91.38;102710.09;2080234;28;45325;-64
2022/05/08 00:20:45;;;;;;;23.67;4.57;;;;;;;5.19;92.14;102707.28;2080208;28;43732;-63
2022/05/08 00:21:47;;;;;;;25.67;4.97;;;;;;;5.19;91.88;102707.28;2079445;28;45491;-64
2022/05/08 00:22:50;;;;;;;25.48;4.32;;;;;;;5.14;90.97;102700.09;2081176;28;20038;-63
2022/05/08 00:23:52;;;;;;;24.42;4.97;;;;;;;5.15;92.54;102714.28;2080108;28;45559;-63
2022/05/08 00:24:55;;;;;;;26.27;4.93;;;;;;;5.17;92.19;102709.94;2080196;28;44885;-64
2022/05/08 00:25:56;;;;;;;31.23;5.15;;;;;;;5.25;91.84;102704.81;2080016;28;41140;-64
2022/05/08 00:26:58;;;;;;;25.77;5.68;;;;;;;5.20;92.58;102709.09;2080232;28;45295;-64
2022/05/08 00:28:00;;;;;;;19.30;4.57;;;;;;;5.13;91.51;102708.94;2081105;28;20147;-63
2022/05/08 00:29:02;;;;;;;18.88;4.18;;;;;;;5.17;91.65;102709.94;2079681;28;42762;-64
2022/05/08 00:30:07;;;;;;;22.15;4.43;;;;;;;5.09;91.79;102706.16;2080854;28;20938;-64
2022/05/08 00:31:10;;;;;;;29.70;5.28;;;;;;;5.09;92.25;102708.81;2080538;28;31546;-64
2022/05/08 00:32:12;;;;;;;25.30;4.25;;;;;;;5.05;91.55;102709.59;2079891;28;43560;-64
2022/05/08 00:33:15;;;;;;;23.70;4.40;;;;;;;5.02;91.14;102712.13;2080606;28;20038;-64
2022/05/08 00:34:17;;;;;;;27.73;5.47;;;;;;;5.01;91.95;102710.31;2080684;28;31428;-64
2022/05/08 00:35:19;;;;;;;26.92;4.90;;;;;;;5.03;92.49;102713.97;2080110;28;46020;-64
2022/05/08 00:36:21;;;;;;;25.27;5.60;;;;;;;5.08;91.75;102720.25;2080080;28;44528;-64
2022/05/08 00:37:22;;;;;;;23.80;4.30;;;;;;;5.03;92.02;102716.59;2080082;28;43445;-64
2022/05/08 00:38:24;;;;;;;21.60;4.70;;;;;;;5.00;92.19;102708.56;2079871;28;45429;-64
2022/05/08 00:39:28;;;;;;;21.20;4.05;;;;;;;4.95;91.42;102714.63;2080167;28;41005;-64
2022/05/08 00:40:35;;;;;;;25.30;4.78;;;;;;;4.98;92.15;102720.00;2080116;28;45614;-64
2022/05/08 00:41:36;;;;;;;20.65;5.30;;;;;;;4.95;92.39;102719.94;2080134;28;46256;-64
2022/05/08 00:42:38;;;;;;;30.60;5.78;;;;;;;5.01;93.15;102711.25;2079645;28;45325;-64
2022/05/08 00:43:43;;;;;;;26.77;5.45;;;;;;;4.99;92.90;102718.28;2080089;28;44764;-64
2022/05/08 00:44:44;;;;;;;24.15;5.40;;;;;;;5.00;92.62;102716.50;2079571;28;42130;-64
2022/05/08 00:45:46;;;;;;;28.65;4.72;;;;;;;5.00;92.80;102714.75;2079107;28;44254;-64
2022/05/08 00:46:48;;;;;;;22.23;4.78;;;;;;;4.95;92.50;102711.97;2079522;28;43430;-65
2022/05/08 00:47:50;;;;;;;21.80;5.30;;;;;;;4.97;91.85;102717.31;2080760;28;45298;-64
2022/05/08 00:48:52;;;;;;;20.85;4.93;;;;;;;4.93;91.57;102711.00;2081021;28;41848;-65
2022/05/08 00:49:54;;;;;;;21.83;4.82;;;;;;;4.92;91.57;102726.91;2079461;28;42027;-65
2022/05/08 00:50:57;;;;;;;20.52;4.80;;;;;;;4.88;92.07;102723.28;2079994;28;36335;-64
2022/05/08 00:52:05;;;;;;;23.45;4.38;;;;;;;4.85;91.84;102717.88;2070717;28;44191;-64
2022/05/08 00:53:06;;;;;;;30.83;5.63;;;;;;;4.94;92.84;102727.84;2070266;28;45161;-65
2022/05/08 00:54:08;;;;;;;31.35;4.90;;;;;;;4.92;92.74;102718.94;2079465;28;44821;-62
2022/05/08 00:55:10;;;;;;;21.58;5.05;;;;;;;4.90;92.56;102726.88;2081290;28;20103;-65
2022/05/08 00:56:14;;;;;;;22.83;5.45;;;;;;;4.88;92.56;102720.63;2071138;28;43252;-64
2022/05/08 00:57:16;;;;;;;18.08;4.75;;;;;;;4.85;92.30;102723.16;2071304;28;44980;-64
2022/05/08 00:58:18;;;;;;;22.48;5.00;;;;;;;4.84;91.84;102724.00;2080222;28;20037;-64
2022/05/08 00:59:20;;;;;;;18.60;4.47;;;;;;;4.85;92.19;102717.88;2079263;28;45201;-64
2022/05/08 01:00:22;;;;;;;21.15;4.80;;;;;;;4.84;91.87;102720.47;2079580;28;45603;-64
2022/05/08 01:01:23;;;;;;;20.65;5.45;;;;;;;4.78;91.38;102721.19;2080311;28;34837;-64
2022/05/08 01:02:25;;;;;;;22.75;5.38;;;;;;;4.77;92.45;102715.00;2079709;28;46787;-63
2022/05/08 01:03:27;;;;;;;20.25;4.93;;;;;;;4.70;92.38;102723.63;2078934;28;42559;-63
2022/05/08 01:04:30;;;;;;;24.85;5.20;;;;;;;4.69;92.55;102721.81;2079768;28;43939;-64
2022/05/08 01:05:41;;;;;;;27.13;5.35;;;;;;;4.65;92.50;102713.69;2080912;28;20038;-64
2022/05/08 01:06:45;;;;;;;21.27;4.78;;;;;;;4.58;91.82;102716.19;2080264;28;20125;-64
2022/05/08 01:07:47;;;;;;;19.95;3.88;;;;;;;4.57;91.76;102716.13;2077674;28;45053;-64
2022/05/08 01:08:51;;;;;;;25.25;4.55;;;;;;;4.54;92.10;102716.94;2071516;28;41983;-64
2022/05/08 01:09:54;;;;;;;20.40;4.80;;;;;;;4.52;91.81;102723.97;2078572;28;45603;-64
2022/05/08 01:10:56;;;;;;;19.98;4.68;;;;;;;4.49;91.75;102722.97;2080063;28;43711;-64
2022/05/08 01:11:58;;;;;;;24.92;5.85;;;;;;;4.51;93.11;102719.50;2079437;28;45483;-63
2022/05/08 01:13:01;;;;;;;31.02;6.15;;;;;;;4.50;93.32;102715.03;2080078;28;42473;-65
2022/05/08 01:14:03;;;;;;;20.42;4.85;;;;;;;4.46;92.27;102715.81;2079679;28;43632;-65
2022/05/08 01:15:41;;;;;;;21.20;4.65;;;;;;;4.39;92.51;102719.13;2079987;28;20045;-65
2022/05/08 01:16:42;;;;;;;25.63;4.43;;;;;;;4.38;92.36;102718.22;2079568;28;43434;-65
2022/05/08 01:17:46;;;;;;;28.23;5.97;;;;;;;4.36;92.72;102714.63;2080610;28;45482;-64
2022/05/08 01:18:50;;;;;;;15.95;4.40;;;;;;;4.33;92.50;102711.88;2081883;28;20682;-64
2022/05/08 01:19:52;;;;;;;32.78;6.07;;;;;;;4.34;93.18;102718.06;2079691;28;33271;-65
2022/05/08 01:20:54;;;;;;;23.25;5.35;;;;;;;4.34;93.05;102718.06;2080238;28;20080;-65
2022/05/08 01:21:58;;;;;;;19.95;5.45;;;;;;;4.32;93.87;102719.78;2079737;28;45327;-65
2022/05/08 01:23:05;;;;;;;24.08;5.00;;;;;;;4.29;93.18;102711.72;2079721;28;43202;-65
2022/05/08 01:24:10;;;;;;;23.42;5.15;;;;;;;4.26;93.30;102715.19;2079718;28;44254;-65
2022/05/08 01:25:15;;;;;;;24.55;5.25;;;;;;;4.21;92.74;102706.19;2071724;28;20042;-65
2022/05/08 01:26:23;;;;;;;27.83;5.63;;;;;;;4.21;93.07;102715.03;2063361;28;34264;-65
2022/05/08 01:27:25;;;;;;;29.08;5.57;;;;;;;4.21;92.91;102715.03;2071692;28;46413;-65
2022/05/08 01:28:29;;;;;;;29.35;5.90;;;;;;;4.22;93.78;102715.94;2077878;28;41955;-65
2022/05/08 01:29:31;;;;;;;25.17;6.97;;;;;;;4.17;93.28;102715.78;2079684;28;45585;-65
2022/05/08 01:30:33;;;;;;;22.65;6.60;;;;;;;4.18;93.80;102712.28;2078941;28;44619;-64
2022/05/08 01:31:35;;;;;;;17.77;5.18;;;;;;;4.17;93.85;102720.19;2078861;28;44309;-65
2022/05/08 01:32:39;;;;;;;26.25;5.88;;;;;;;4.11;93.49;102715.59;2080580;28;20949;-65
2022/05/08 01:33:43;;;;;;;26.83;5.78;;;;;;;4.09;93.73;102722.59;2079605;28;43612;-65
2022/05/08 01:34:45;;;;;;;25.33;6.22;;;;;;;4.11;93.73;102719.97;2079701;28;37068;-64
2022/05/08 01:35:47;;;;;;;28.70;5.60;;;;;;;4.06;93.32;102717.19;2070974;28;44728;-64
2022/05/08 01:36:49;;;;;;;24.10;5.68;;;;;;;4.05;93.82;102712.72;2071392;28;43902;-66
2022/05/08 01:37:51;;;;;;;26.23;5.47;;;;;;;4.04;93.59;102713.59;2079574;28;46475;-65
2022/05/08 01:38:56;;;;;;;25.02;5.57;;;;;;;4.01;93.59;102717.03;2080921;28;20038;-65
2022/05/08 01:39:58;;;;;;;29.35;6.25;;;;;;;3.99;93.81;102713.44;2080074;28;44284;-65
2022/05/08 01:41:04;;;;;;;26.92;5.97;;;;;;;3.98;93.85;102714.31;2079753;28;46364;-65
2022/05/08 01:42:07;;;;;;;19.73;5.22;;;;;;;3.96;93.50;102721.28;2079563;28;43534;-65
2022/05/08 01:43:12;;;;;;;16.13;4.68;;;;;;;3.94;93.81;102717.69;2079593;28;45577;-66
2022/05/08 01:44:14;;;;;;;17.83;4.78;;;;;;;3.91;93.83;102716.69;2079986;28;32702;-65
2022/05/08 01:45:16;;;;;;;21.65;5.55;;;;;;;3.87;93.99;102726.28;2079682;28;45097;-65
2022/05/08 01:46:17;;;;;;;24.98;5.40;;;;;;;3.82;93.88;102718.19;2078811;28;46477;-65
2022/05/08 01:48:40;;;;;;;;;;;;;;;3.75;93.71;102720.56;2079882;28;44305;-64
2022/05/08 01:49:41;;;;;;;20.52;4.70;;;;;;;3.71;93.90;102719.56;2081700;28;39885;-65
2022/05/08 01:50:43;;;;;;;22.85;5.38;;;;;;;3.69;94.14;102726.56;2079422;28;43765;-65
2022/05/08 01:51:47;;;;;;;25.92;4.97;;;;;;;3.67;94.59;102722.97;2079438;28;44934;-65
2022/05/08 01:52:49;;;;;;;21.45;5.82;;;;;;;3.67;94.27;102728.25;2079899;28;31928;-65
2022/05/08 01:53:53;;;;;;;33.55;5.72;;;;;;;3.68;94.62;102719.47;2078935;28;44284;-65
2022/05/08 01:54:54;;;;;;;25.02;6.07;;;;;;;3.68;94.59;102724.78;2079269;28;44528;-65
2022/05/08 01:55:56;;;;;;;23.83;5.80;;;;;;;3.67;94.47;102720.31;2078328;28;42921;-63
2022/05/08 01:56:58;;;;;;;20.40;4.80;;;;;;;3.65;94.25;102724.66;2079233;28;46313;-66
2022/05/08 01:58:01;;;;;;;20.13;4.88;;;;;;;3.59;94.34;102729.75;2078968;28;43355;-66
2022/05/08 01:59:04;;;;;;;17.08;4.63;;;;;;;3.60;94.63;102724.47;2078970;28;20046;-65
2022/05/08 02:00:06;;;;;;;23.13;5.00;;;;;;;3.57;94.30;102726.13;2079117;28;44303;-65
2022/05/08 02:01:15;;;;;;;24.15;5.30;;;;;;;3.56;94.67;102724.34;2080739;28;20042;-64
2022/05/08 02:02:17;;;;;;;18.95;4.82;;;;;;;3.55;94.61;102722.53;2078868;28;46796;-65
2022/05/08 02:03:24;;;;;;;23.75;5.43;;;;;;;3.53;94.17;102725.13;2079614;28;43956;-66
2022/05/08 02:04:25;;;;;;;32.22;6.72;;;;;;;3.51;94.48;102725.94;2078926;28;45010;-65
2022/05/08 02:05:28;;;;;;;31.95;6.25;;;;;;;3.51;94.71;102725.94;2078958;28;44982;-65
2022/05/08 02:06:30;;;;;;;24.10;6.00;;;;;;;3.51;94.89;102720.63;2078988;28;42030;-65
2022/05/08 02:07:33;;;;;;;27.88;6.25;;;;;;;3.51;95.02;102725.94;2080154;28;26397;-65
2022/05/08 02:08:35;;;;;;;24.77;5.93;;;;;;;3.48;94.77;102721.41;2079709;28;45979;-64
2022/05/08 02:09:37;;;;;;;28.65;6.63;;;;;;;3.47;94.61;102718.72;2078712;28;45108;-65
2022/05/08 02:10:39;;;;;;;26.38;6.20;;;;;;;3.43;94.73;102715.97;2078591;28;44878;-65
2022/05/08 02:11:43;;;;;;;20.38;5.53;;;;;;;3.41;94.47;102717.66;2079466;28;42158;-64
2022/05/08 02:12:45;;;;;;;25.10;5.80;;;;;;;3.37;94.81;102728.97;2079084;28;45406;-65
2022/05/08 02:13:48;;;;;;;17.48;5.32;;;;;;;3.33;94.25;102721.78;2079219;28;20030;-65
2022/05/08 02:14:49;;;;;;;14.75;4.88;;;;;;;3.30;94.51;102716.38;2078386;28;45292;-65
2022/05/08 02:15:51;;;;;;;22.75;5.18;;;;;;;3.28;94.73;102719.81;2079615;28;45136;-65
2022/05/08 02:16:55;;;;;;;24.15;5.45;;;;;;;3.25;94.75;102723.28;2079041;28;42278;-65
2022/05/08 02:18:02;;;;;;;18.50;4.90;;;;;;;3.22;94.89;102715.22;2079450;28;44309;-64
2022/05/08 02:19:04;;;;;;;25.92;5.25;;;;;;;3.22;95.22;102717.84;2079896;28;35228;-65
2022/05/08 02:20:08;;;;;;;16.75;4.55;;;;;;;3.23;95.16;102724.94;2082017;28;20030;-65
2022/05/08 02:21:10;;;;;;;27.65;5.65;;;;;;;3.23;95.45;102723.22;2078563;28;46052;-65
2022/05/08 02:22:12;;;;;;;18.83;5.47;;;;;;;3.21;95.14;102716.03;2079150;28;43796;-64
2022/05/08 02:23:13;;;;;;;19.58;4.93;;;;;;;3.19;95.62;102717.72;2078713;28;43282;-65
2022/05/08 02:24:15;;;;;;;20.23;5.05;;;;;;;3.19;95.24;102723.03;2070038;28;45599;-64
2022/05/08 02:25:18;;;;;;;19.92;5.68;;;;;;;3.16;95.62;102712.31;2070773;28;43896;-65
2022/05/08 02:26:19;;;;;;;18.55;4.80;;;;;;;3.18;95.60;102710.66;2062724;28;45774;-65
2022/05/08 02:27:21;;;;;;;19.38;5.38;;;;;;;3.18;95.66;102718.59;2062559;28;40254;-64
2022/05/08 02:28:23;;;;;;;22.02;5.22;;;;;;;3.18;95.54;102721.25;2070940;28;45889;-65
2022/05/08 02:29:24;;;;;;;19.92;5.47;;;;;;;3.18;95.57;102721.25;2079254;28;46223;-65
2022/05/08 02:30:26;;;;;;;25.95;6.50;;;;;;;3.16;95.33;102717.63;2079787;28;37629;-65
2022/05/08 02:31:28;;;;;;;20.25;5.63;;;;;;;3.14;95.79;102725.53;2078647;28;45403;-65
2022/05/08 02:32:29;;;;;;;19.77;5.13;;;;;;;3.14;95.79;102714.94;2079691;28;44142;-63
2022/05/08 02:33:33;;;;;;;19.73;6.22;;;;;;;3.12;95.82;102721.91;2078332;28;45174;-64
2022/05/08 02:34:36;;;;;;;24.95;6.07;;;;;;;3.15;95.20;102721.13;2079888;28;20108;-64
2022/05/08 02:35:40;;;;;;;21.95;5.20;;;;;;;3.14;95.48;102720.22;2080504;28;20959;-65
2022/05/08 02:36:41;;;;;;;24.80;6.32;;;;;;;3.15;95.77;102726.41;2078943;28;45405;-65
2022/05/08 02:37:43;;;;;;;20.60;6.05;;;;;;;3.14;95.50;102729.91;2078510;28;44559;-65
2022/05/08 02:38:45;;;;;;;25.20;5.93;;;;;;;3.10;95.92;102720.94;2079018;28;45469;-65
2022/05/08 02:39:49;;;;;;;22.60;6.00;;;;;;;3.11;95.55;102724.50;2079112;28;20875;-65
2022/05/08 02:40:51;;;;;;;18.88;4.80;;;;;;;3.10;95.81;102722.69;2079245;28;42385;-65
2022/05/08 02:41:53;;;;;;;18.15;5.40;;;;;;;3.05;95.69;102723.44;2078695;28;46179;-64
2022/05/08 02:42:55;;;;;;;18.75;5.68;;;;;;;3.02;95.21;102725.97;2079353;28;45774;-64
2022/05/08 02:43:56;;;;;;;21.88;5.07;;;;;;;2.99;95.84;102723.19;2078809;28;45195;-65
2022/05/08 02:45:00;;;;;;;21.17;4.80;;;;;;;2.99;95.31;102724.94;2079195;28;44447;-64
2022/05/08 02:46:02;;;;;;;15.38;4.50;;;;;;;2.97;95.13;102716.94;2077904;28;41986;-65
2022/05/08 02:47:04;;;;;;;18.95;5.28;;;;;;;2.96;95.74;102723.09;2078716;28;44080;-65
2022/05/08 02:48:08;;;;;;;19.50;5.13;;;;;;;2.96;95.31;102719.53;2078707;28;44182;-65
2022/05/08 02:49:09;;;;;;;18.23;4.88;;;;;;;2.94;96.04;102719.47;2079072;28;20034;-65
2022/05/08 02:50:11;;;;;;;23.98;5.90;;;;;;;2.94;95.72;102722.13;2078722;28;28823;-65
2022/05/08 02:51:14;;;;;;;15.70;5.50;;;;;;;3.00;95.90;102722.38;2071834;28;43930;-65
2022/05/08 02:52:15;;;;;;;22.15;6.07;;;;;;;2.95;95.60;102723.94;2079119;28;46096;-65
2022/05/08 02:53:17;;;;;;;25.98;6.47;;;;;;;2.93;96.10;102722.97;2079100;28;46442;-65
2022/05/08 02:54:19;;;;;;;26.98;6.10;;;;;;;2.92;95.57;102723.81;2078376;28;42134;-65
2022/05/08 02:59:28;;;;;;;18.38;5.10;;;;;;;2.84;95.95;102728.81;2078877;28;45199;-64
2022/05/08 03:00:32;;;;;;;20.42;5.05;;;;;;;2.83;95.54;102723.47;2078830;28;42107;-65
2022/05/08 03:01:34;;;;;;;18.17;4.57;;;;;;;2.81;96.07;102725.16;2078871;28;44035;-65
2022/05/08 03:02:39;;;;;;;22.45;5.57;;;;;;;2.79;95.44;102727.75;2080266;28;20049;-64
2022/05/08 03:03:41;;;;;;;19.10;5.10;;;;;;;2.77;95.48;102724.16;2070281;28;45454;-64
2022/05/08 03:04:43;;;;;;;18.75;4.90;;;;;;;2.81;96.35;102722.50;2070355;28;46172;-65
2022/05/08 03:05:47;;;;;;;22.17;5.13;;;;;;;2.81;96.20;102722.50;2079643;28;42362;-65
2022/05/08 03:06:49;;;;;;;19.20;5.45;;;;;;;2.80;96.47;102723.34;2079285;28;37858;-65
2022/05/08 03:07:50;;;;;;;18.30;5.28;;;;;;;2.82;96.30;102719.03;2078906;28;45214;-65
2022/05/08 03:08:54;;;;;;;18.10;5.25;;;;;;;2.80;95.45;102720.69;2079668;28;20119;-65
2022/05/08 03:09:56;;;;;;;14.02;4.90;;;;;;;2.77;95.58;102723.25;2078968;28;45907;-65
2022/05/08 03:12:19;;;;;;;20.33;5.50;;;;;;;2.73;95.97;102716.03;2072906;28;45175;-65
2022/05/08 03:13:23;;;;;;;16.20;4.93;;;;;;;2.73;96.33;102716.03;2078852;28;46492;-66
2022/05/08 03:14:25;;;;;;;18.48;5.78;;;;;;;2.79;96.54;102718.91;2079420;28;42161;-65
2022/05/08 03:15:28;;;;;;;25.48;6.15;;;;;;;2.75;96.72;102715.25;2079116;28;32413;-65
2022/05/08 03:16:33;;;;;;;16.45;4.28;;;;;;;2.78;96.79;102719.75;2080178;28;20108;-65
2022/05/08 03:17:35;;;;;;;24.20;4.78;;;;;;;2.76;96.21;102718.78;2078594;28;44111;-65
2022/05/08 03:18:41;;;;;;;15.60;4.50;;;;;;;2.72;96.13;102714.25;2078090;28;46688;-64
2022/05/08 03:19:43;;;;;;;17.25;5.28;;;;;;;2.71;96.09;102717.72;2077984;28;41617;-65
2022/05/08 03:20:45;;;;;;;15.85;4.97;;;;;;;2.70;96.39;102715.94;2078765;28;40513;-65
2022/05/08 03:21:51;;;;;;;16.63;4.57;;;;;;;2.72;95.84;102722.16;2079992;28;44374;-65
2022/05/08 03:22:52;;;;;;;17.65;4.63;;;;;;;2.68;95.66;102718.50;2078772;28;43414;-65
2022/05/08 03:23:56;;;;;;;17.33;4.10;;;;;;;2.67;95.65;102719.34;2078914;28;46683;-65
2022/05/08 03:24:58;;;;;;;17.10;4.82;;;;;;;2.72;96.19;102719.53;2078129;28;38920;-65
2022/05/08 03:26:02;;;;;;;15.88;4.63;;;;;;;2.62;95.89;102713.88;2077753;28;45700;-65
2022/05/08 03:27:06;;;;;;;19.52;4.65;;;;;;;2.61;96.16;102724.41;2071442;28;45827;-65
2022/05/08 03:28:09;;;;;;;18.13;5.13;;;;;;;2.59;96.66;102731.38;2079521;28;20046;-65
2022/05/08 03:29:11;;;;;;;18.20;5.18;;;;;;;2.56;95.85;102731.25;2078258;28;44790;-64
2022/05/08 03:30:17;;;;;;;15.82;4.55;;;;;;;2.56;96.67;102732.16;2080315;28;20116;-65
2022/05/08 03:31:18;;;;;;;14.57;4.70;;;;;;;2.55;96.38;102727.72;2078659;28;43950;-63
2022/05/08 03:32:20;;;;;;;14.48;4.60;;;;;;;2.53;96.22;102728.47;2079115;28;46104;-65
2022/05/08 03:33:22;;;;;;;17.58;4.75;;;;;;;2.52;96.28;102738.16;2079197;28;44204;-64
2022/05/08 03:34:24;;;;;;;15.57;4.68;;;;;;;2.51;96.32;102733.69;2078601;28;44021;-65
2022/05/08 03:35:28;;;;;;;19.80;4.90;;;;;;;2.51;96.05;102739.00;2079325;28;42204;-66
2022/05/08 03:36:29;;;;;;;19.30;5.03;;;;;;;2.52;95.56;102730.22;2078762;28;44115;-64
2022/05/08 03:37:33;;;;;;;13.98;4.10;;;;;;;2.51;95.70;102730.16;2078650;28;44198;-65
2022/05/08 03:38:35;;;;;;;17.77;3.88;;;;;;;2.51;96.71;102725.78;2078347;28;42157;-65
2022/05/08 03:39:36;;;;;;;13.55;3.33;;;;;;;2.51;96.27;102736.34;2078250;28;45694;-65
2022/05/08 03:40:38;;;;;;;20.02;4.65;;;;;;;2.46;96.34;102736.19;2070119;28;43484;-65
2022/05/08 03:41:40;;;;;;;16.60;4.50;;;;;;;2.45;96.43;102728.19;2070333;28;43943;-65
2022/05/08 03:42:42;;;;;;;14.63;4.20;;;;;;;2.45;96.27;102730.84;2078670;28;45132;-65
2022/05/08 03:43:46;;;;;;;17.77;4.88;;;;;;;2.43;96.07;102730.75;2078956;28;20034;-65
2022/05/08 03:44:48;;;;;;;15.32;4.47;;;;;;;2.42;96.08;102733.34;2077696;28;44081;-65
2022/05/08 03:45:50;;;;;;;17.88;4.68;;;;;;;2.40;96.02;102732.38;2070772;28;44400;-65
2022/05/08 03:46:52;;;;;;;14.50;4.20;;;;;;;2.42;96.44;102738.63;2078451;28;43779;-65
2022/05/08 03:47:54;;;;;;;17.52;4.18;;;;;;;2.42;96.51;102728.06;2078896;28;45059;-64
2022/05/08 03:48:56;;;;;;;17.52;3.92;;;;;;;2.44;95.88;102734.31;2078577;28;43582;-65
2022/05/08 03:49:58;;;;;;;13.15;3.47;;;;;;;2.43;96.47;102733.41;2078029;28;45336;-65
2022/05/08 03:51:01;;;;;;;17.90;4.65;;;;;;;2.43;95.99;102732.53;2069968;28;45933;-65
2022/05/08 03:52:04;;;;;;;13.52;4.60;;;;;;;2.43;96.15;102732.53;2074065;28;45048;-65
2022/05/08 03:53:05;;;;;;;12.50;4.22;;;;;;;2.43;95.99;102733.41;2079753;28;32442;-64
2022/05/08 03:54:09;;;;;;;15.73;4.72;;;;;;;2.43;96.16;102738.69;2079477;28;43312;-65
2022/05/08 03:55:15;;;;;;;14.80;4.45;;;;;;;2.46;96.20;102732.66;2080541;28;42716;-65
2022/05/08 03:56:16;;;;;;;14.35;4.53;;;;;;;2.47;96.44;102735.31;2080032;28;41761;-65
2022/05/08 03:57:18;;;;;;;15.90;4.97;;;;;;;2.51;96.43;102741.63;2079730;28;35479;-64
2022/05/08 03:58:20;;;;;;;11.38;3.47;;;;;;;2.55;96.13;102733.00;2080084;28;43093;-65
2022/05/08 03:59:21;;;;;;;13.93;4.03;;;;;;;2.54;96.00;102731.19;2078802;28;44880;-65
2022/05/08 04:00:23;;;;;;;13.02;4.38;;;;;;;2.58;95.95;102734.84;2079639;28;44109;-65
2022/05/08 04:01:25;;;;;;;13.18;3.15;;;;;;;2.60;95.86;102735.81;2080312;28;46497;-65
2022/05/08 04:02:27;;;;;;;11.52;3.83;;;;;;;2.59;96.50;102732.28;2080527;28;33077;-65
2022/05/08 04:03:36;;;;;;;14.70;4.07;;;;;;;2.62;96.29;102736.75;2081294;28;20917;-65
2022/05/08 04:04:37;;;;;;;13.93;3.83;;;;;;;2.63;95.57;102742.13;2080418;28;45500;-65
2022/05/08 04:05:42;;;;;;;9.75;3.15;;;;;;;2.66;95.96;102742.25;2081149;28;20026;-65
2022/05/08 04:06:44;;;;;;;15.32;3.97;;;;;;;2.69;95.86;102741.44;2079946;28;45140;-65
2022/05/08 04:07:47;;;;;;;11.35;3.95;;;;;;;2.74;96.24;102742.53;2080068;28;42275;-65
2022/05/08 04:08:51;;;;;;;6.75;3.40;;;;;;;2.81;95.70;102743.69;2071012;28;44436;-65
2022/05/08 04:09:53;;;;;;;20.02;4.88;;;;;;;2.86;96.04;102744.75;2071220;28;44253;-65
2022/05/08 04:10:56;;;;;;;15.10;4.57;;;;;;;2.92;95.95;102736.16;2071919;28;42793;-65
2022/05/08 04:11:57;;;;;;;11.48;4.07;;;;;;;3.00;96.39;102746.19;2079751;28;45140;-65
2022/05/08 04:12:59;;;;;;;7.15;3.10;;;;;;;3.10;95.62;102742.13;2079738;28;43223;-65
2022/05/08 04:14:01;;;;;;;17.45;4.97;;;;;;;3.19;95.77;102744.19;2079909;28;26595;-66
2022/05/08 04:15:05;;;;;;;11.35;4.10;;;;;;;3.31;95.76;102733.16;2080316;28;43411;-65
2022/05/08 04:16:21;;;;;;;16.80;5.00;;;;;;;3.53;96.08;102738.38;2079410;28;45448;-65
2022/05/08 04:17:22;;;;;;;13.85;4.15;;;;;;;3.88;95.89;102744.00;2079394;28;46652;-65
2022/05/08 04:18:25;;;;;;;17.60;5.35;;;;;;;4.16;95.97;102735.22;2081468;28;20050;-65
2022/05/08 04:19:27;;;;;;;12.77;4.78;;;;;;;4.45;94.96;102736.97;2080427;28;31811;-66
2022/05/08 04:20:29;;;;;;;16.67;4.25;;;;;;;4.67;94.35;102738.56;2079100;28;45153;-66
2022/05/08 04:21:30;;;;;;;17.08;4.20;;;;;;;4.95;93.75;102737.59;2079803;28;42406;-65
2022/05/08 04:25:12;;;;;;;11.50;3.25;;;;;;;5.61;91.46;102734.13;2080271;28;45527;-65
2022/05/08 04:26:14;;;;;;;7.63;2.33;;;;;;;5.64;89.81;102734.22;2079111;28;43832;-66
2022/05/08 04:27:19;;;;;;;11.00;2.42;;;;;;;5.64;89.86;102734.22;2080652;28;20053;-66
2022/05/08 04:28:20;;;;;;;13.00;2.95;;;;;;;5.64;88.30;102734.22;2079546;28;45500;-66
2022/05/08 04:29:22;;;;;;;8.90;2.65;;;;;;;5.62;88.52;102741.25;2079653;28;45032;-66
2022/05/08 04:30:24;;;;;;;13.60;2.95;;;;;;;5.60;87.36;102735.00;2079498;28;42782;-64
2022/05/08 04:31:26;;;;;;;11.70;2.95;;;;;;;5.57;87.57;102732.25;2080246;28;46142;-67
2022/05/08 04:32:28;;;;;;;8.90;2.30;;;;;;;5.57;87.61;102734.03;2080159;28;34352;-65
2022/05/08 04:33:29;;;;;;;13.60;2.90;;;;;;;5.55;87.71;102739.28;2079420;28;43909;-65
2022/05/08 04:34:31;;;;;;;10.13;2.25;;;;;;;5.54;86.62;102732.16;2079869;28;44636;-66
2022/05/08 04:35:33;;;;;;;16.00;3.20;;;;;;;5.54;86.82;102745.44;2080020;28;42990;-66
2022/05/08 04:36:34;;;;;;;12.85;3.30;;;;;;;5.49;85.92;102745.34;2079774;28;46298;-66
2022/05/08 04:37:36;;;;;;;7.97;2.97;;;;;;;5.52;87.50;102740.09;2080362;28;41370;-67
2022/05/08 04:38:38;;;;;;;12.98;3.35;;;;;;;5.54;86.56;102742.78;2080081;28;35711;-67
2022/05/08 04:39:40;;;;;;;10.85;2.55;;;;;;;5.58;86.64;102751.75;2079950;28;43695;-65
2022/05/08 04:40:41;;;;;;;12.93;2.67;;;;;;;5.55;86.63;102745.50;2080348;28;45458;-66
2022/05/08 04:41:43;;;;;;;13.25;3.28;;;;;;;5.53;86.50;102752.53;2079890;28;45513;-66
2022/05/08 04:42:45;;;;;;;15.57;3.38;;;;;;;5.58;86.51;102751.75;2079491;28;45934;-66
2022/05/08 04:43:46;;;;;;;10.48;3.05;;;;;;;5.61;85.51;102747.41;2080031;28;44106;-66
2022/05/08 04:44:48;;;;;;;12.27;2.88;;;;;;;5.57;85.11;102749.97;2079812;28;44890;-65
2022/05/08 04:45:53;;;;;;;12.73;3.13;;;;;;;5.61;85.65;102755.38;2079685;28;41162;-66
2022/05/08 04:46:54;;;;;;;10.70;2.53;;;;;;;5.63;86.17;102756.31;2079399;28;28267;-66
2022/05/08 04:47:59;;;;;;;11.13;2.53;;;;;;;5.64;85.10;102754.59;2079857;28;46160;-65
2022/05/08 04:49:00;;;;;;;9.73;2.50;;;;;;;5.66;85.72;102748.44;2078959;28;43893;-65
2022/05/08 04:50:04;;;;;;;15.35;3.00;;;;;;;5.70;85.13;102749.41;2080482;28;20034;-65
2022/05/08 04:51:07;;;;;;;9.82;2.55;;;;;;;5.73;85.53;102755.72;2078987;28;43370;-67
2022/05/08 04:52:09;;;;;;;14.52;3.35;;;;;;;5.74;85.55;102754.88;2071840;28;32324;-65
2022/05/08 04:53:13;;;;;;;12.82;2.22;;;;;;;5.78;85.38;102757.59;2082648;28;20052;-66
2022/05/08 04:54:15;;;;;;;13.18;3.20;;;;;;;5.77;83.35;102758.47;2079211;28;45038;-67
2022/05/08 04:55:17;;;;;;;14.68;2.30;;;;;;;5.80;84.93;102758.56;2079899;28;44822;-65
2022/05/08 04:56:21;;;;;;;9.43;2.13;;;;;;;5.84;84.94;102763.09;2080557;28;20068;-66
2022/05/08 04:57:22;;;;;;;9.73;2.33;;;;;;;5.81;84.13;102763.88;2079887;28;30513;-66
2022/05/08 04:58:29;;;;;;;16.25;2.85;;;;;;;5.85;84.09;102767.50;2079867;28;45923;-67
2022/05/08 04:59:30;;;;;;;9.48;2.60;;;;;;;5.86;83.76;102761.34;2079735;28;45034;-67
2022/05/08 05:00:32;;;;;;;9.20;2.55;;;;;;;5.89;84.20;102764.09;2080083;28;46396;-65
2022/05/08 05:01:35;;;;;;;12.13;2.70;;;;;;;5.92;83.11;102769.47;2079397;28;43646;-66
2022/05/08 05:02:36;;;;;;;10.77;2.65;;;;;;;5.97;83.48;102770.53;2080317;28;42503;-66